UTAA

Ashgabat Airport

Ashgabat, Turkmenistan
TAF UTAA 252250Z 2600/2624 VRB02KT 6000 SCT030 530009 TEMPO 2600/2603 34012KT BECMG 2603/2605 12018KT TEMPO 2608/2614 09014G24KT
Issued Valid From Valid To
Apr-25 @ 22:50 UTC
(4 hours ago)
Apr-26 @ 00:00 UTC
(3 hours ago)
Apr-27 @ 00:00 UTC
(in 21 hours)
Expired Click to View Apr-26 @ 00:00 to Apr-26 @ 03:00
TAF UTAA 252250Z 2600/2624 VRB02KT 6000 SCT030 530009
Wind Visibility Clouds Turbulence
Variable at 2 knots 6,003 meters
  • Scattered at 3,000' AGL
Frequent moderate clear air turbulence expected at the surface extending to 9,000' AGL
Expired Click to View Apr-26 @ 00:00 to Apr-26 @ 03:00
TEMPO 2600/2603 34012KT
Wind
340° at 12 knots
Becoming Apr-26 @ 03:00 to Apr-27 @ 00:00
BECMG 2603/2605 12018KT
Wind Visibility Clouds
120° at 18 knots 6,003 meters
  • Scattered at 3,000' AGL
Temporary Apr-26 @ 08:00 to Apr-26 @ 14:00
TEMPO 2608/2614 09014G24KT
Wind
90° at 14 knots
 Gusting to 24 knots
TAF UTAA 252250Z 2600/2624 VRB02KT 6000 SCT030 530009 TEMPO 2600/2603 34012KT BECMG 2603/2605 12018KT TEMPO 2608/2614 09014G24KT
Issued Apr-25 @ 22:50 UTC
(4 hours ago)
Valid From Apr-26 @ 00:00 UTC
(3 hours ago)
Valid To Apr-27 @ 00:00 UTC
(in 21 hours)
Apr-26 @ 00:00 - Apr-26 @ 03:00
Wind Visibility
Variable at 2 knots 6,003 meters
Clouds
  • Scattered at 3,000' AGL
Apr-26 @ 00:00 - Apr-26 @ 03:00
Wind
340° at 12 knots
Becoming Apr-26 @ 03:00 - Apr-27 @ 00:00
Wind Visibility
120° at 18 knots 6,003 meters
Clouds
  • Scattered at 3,000' AGL
Temporary Apr-26 @ 08:00 - Apr-26 @ 14:00
Wind
90° at 14 knots
 Gusting to 24 knots